createdAt,value
2022-11-03T00:01:41.093Z,10.25
2022-11-03T00:04:13.047Z,10.31
2022-11-03T00:06:47.333Z,10.38
2022-11-03T00:09:19.384Z,10.40
2022-11-03T00:11:50.877Z,10.38
2022-11-03T00:14:23.975Z,10.26
2022-11-03T00:16:54.042Z,10.32
2022-11-03T00:19:24.299Z,10.28
2022-11-03T00:21:58.501Z,10.36
2022-11-03T00:24:28.699Z,10.27
2022-11-03T00:26:58.786Z,10.39
2022-11-03T00:29:29.025Z,10.36
2022-11-03T00:31:59.100Z,10.21
2022-11-03T00:34:29.429Z,10.20
2022-11-03T00:37:02.215Z,10.20
2022-11-03T00:39:32.309Z,10.20
2022-11-03T00:42:02.375Z,10.15
2022-11-03T00:44:32.395Z,10.04
2022-11-03T00:47:02.500Z,9.79
2022-11-03T00:49:32.588Z,9.72
2022-11-03T00:52:05.259Z,9.61
2022-11-03T00:54:35.271Z,9.74
2022-11-03T00:57:05.336Z,9.73
2022-11-03T00:59:35.427Z,9.66
2022-11-03T01:02:05.742Z,9.55
2022-11-03T01:04:48.394Z,9.46
2022-11-03T01:07:23.173Z,9.41
2022-11-03T01:09:53.244Z,9.34
2022-11-03T01:12:23.460Z,9.28
2022-11-03T01:14:55.530Z,9.20
2022-11-03T01:17:27.219Z,9.17
2022-11-03T01:19:57.802Z,9.12
2022-11-03T01:22:30.767Z,9.09
2022-11-03T01:25:00.772Z,9.04
2022-11-03T01:27:30.815Z,8.96
2022-11-03T01:30:00.924Z,8.91
2022-11-03T01:32:31.256Z,8.96
2022-11-03T01:35:01.327Z,8.88
2022-11-03T01:37:34.087Z,8.85
2022-11-03T01:40:04.363Z,8.79
2022-11-03T01:42:34.570Z,8.71
2022-11-03T01:45:04.669Z,8.67
2022-11-03T01:47:38.080Z,8.57
2022-11-03T01:50:11.374Z,8.63
2022-11-03T01:52:47.721Z,8.59
2022-11-03T01:55:21.480Z,8.54
2022-11-03T01:57:53.694Z,8.48
2022-11-03T02:00:24.415Z,8.44
2022-11-03T02:02:54.922Z,8.35
2022-11-03T02:05:26.457Z,8.36
2022-11-03T02:08:03.371Z,8.28
2022-11-03T02:10:33.479Z,8.23
2022-11-03T02:13:06.112Z,8.23
2022-11-03T02:15:37.614Z,8.16
2022-11-03T02:18:08.666Z,8.16
2022-11-03T02:20:38.967Z,8.14
2022-11-03T02:23:35.802Z,8.11
2022-11-03T02:26:11.297Z,8.05
2022-11-03T02:28:41.454Z,8.00
2022-11-03T02:31:18.202Z,7.98
2022-11-03T02:33:55.672Z,7.96
2022-11-03T02:36:31.467Z,7.92
2022-11-03T02:39:06.288Z,7.95
2022-11-03T02:41:41.102Z,8.00
2022-11-03T02:44:17.067Z,8.04
2022-11-03T02:46:50.405Z,8.14
2022-11-03T02:49:20.968Z,8.18
2022-11-03T02:51:51.453Z,8.27
2022-11-03T02:54:26.995Z,8.32
2022-11-03T02:57:04.026Z,8.43
2022-11-03T02:59:41.102Z,8.49
2022-11-03T03:02:14.653Z,8.55
2022-11-03T03:04:49.847Z,8.56
2022-11-03T03:07:25.405Z,8.58
2022-11-03T03:10:03.966Z,8.61
2022-11-03T03:12:40.547Z,8.62
2022-11-03T03:15:12.259Z,8.72
2022-11-03T03:17:48.352Z,8.81
2022-11-03T03:20:25.968Z,8.97
2022-11-03T03:23:00.043Z,9.14
2022-11-03T03:25:34.616Z,9.28
2022-11-03T03:28:12.464Z,9.39
2022-11-03T03:30:45.071Z,9.39
2022-11-03T03:33:16.816Z,9.37
2022-11-03T03:35:50.543Z,9.31
2022-11-03T03:38:25.384Z,9.31
2022-11-03T03:40:59.683Z,9.33
2022-11-03T03:43:32.906Z,9.40
2022-11-03T03:46:09.287Z,9.42
2022-11-03T03:48:40.112Z,9.51
2022-11-03T03:51:11.317Z,9.60
2022-11-03T03:53:41.569Z,9.67
2022-11-03T03:56:12.248Z,9.76
2022-11-03T03:58:45.035Z,9.86
2022-11-03T04:01:15.542Z,9.96
2022-11-03T04:03:45.766Z,10.05
2022-11-03T04:06:15.795Z,10.12
2022-11-03T04:08:57.781Z,10.13
2022-11-03T04:11:40.291Z,10.17
2022-11-03T04:14:25.929Z,10.15
2022-11-03T04:17:10.921Z,10.23
2022-11-03T04:19:53.471Z,10.23
2022-11-03T04:22:23.533Z,10.21
2022-11-03T04:24:54.826Z,10.14
2022-11-03T04:27:32.728Z,10.05
2022-11-03T04:30:16.315Z,9.93
2022-11-03T04:32:47.663Z,9.61
2022-11-03T04:35:20.480Z,9.44
2022-11-03T04:37:55.219Z,9.45
2022-11-03T04:40:25.920Z,9.39
2022-11-03T04:42:56.228Z,9.34
2022-11-03T04:45:34.235Z,9.26
2022-11-03T04:48:13.050Z,9.31
2022-11-03T04:50:46.735Z,9.07
2022-11-03T04:53:17.652Z,8.93
2022-11-03T04:55:49.338Z,8.93
2022-11-03T04:58:22.263Z,8.78
2022-11-03T05:00:57.085Z,8.83
2022-11-03T05:03:30.218Z,8.74
2022-11-03T05:06:00.956Z,8.75
2022-11-03T05:08:33.458Z,8.70
2022-11-03T05:11:04.117Z,8.78
2022-11-03T05:13:39.767Z,8.81
2022-11-03T05:16:12.708Z,8.80
2022-11-03T05:18:47.270Z,8.67
2022-11-03T05:21:20.546Z,8.77
2022-11-03T05:23:55.198Z,8.74
2022-11-03T05:26:29.557Z,8.74
2022-11-03T05:29:03.394Z,8.70
2022-11-03T05:31:39.753Z,8.66
2022-11-03T05:34:31.305Z,8.66
2022-11-03T05:37:02.475Z,8.61
2022-11-03T05:39:34.911Z,8.55
2022-11-03T05:42:15.827Z,8.48
2022-11-03T05:44:45.887Z,8.52
2022-11-03T05:47:23.673Z,8.51
2022-11-03T05:49:57.599Z,8.52
2022-11-03T05:52:32.603Z,8.55
2022-11-03T05:55:03.438Z,8.57
2022-11-03T05:57:36.461Z,8.61
2022-11-03T06:00:11.070Z,8.61
2022-11-03T06:02:45.841Z,8.79
2022-11-03T06:05:21.860Z,8.90
2022-11-03T06:07:59.135Z,9.01
2022-11-03T06:10:31.638Z,9.13
2022-11-03T06:13:05.433Z,9.25
2022-11-03T06:15:37.185Z,9.34
2022-11-03T06:18:19.180Z,9.36
2022-11-03T06:20:54.006Z,9.43
2022-11-03T06:23:24.596Z,9.41
2022-11-03T06:25:56.716Z,9.38
2022-11-03T06:28:32.599Z,9.45
2022-11-03T06:31:02.808Z,9.40
2022-11-03T06:33:38.581Z,9.41
2022-11-03T06:36:19.096Z,9.52
2022-11-03T06:38:55.844Z,9.63
2022-11-03T06:41:28.613Z,9.66
2022-11-03T06:43:59.283Z,9.60
2022-11-03T06:46:29.811Z,9.70
2022-11-03T06:49:05.918Z,9.77
2022-11-03T06:51:38.665Z,10.12
2022-11-03T06:54:12.612Z,10.44
2022-11-03T06:56:42.730Z,10.54
2022-11-03T06:59:17.188Z,10.58
2022-11-03T07:01:51.260Z,10.57
2022-11-03T07:04:28.726Z,10.65
2022-11-03T07:07:02.639Z,10.83
2022-11-03T07:09:32.509Z,11.14
2022-11-03T07:12:03.843Z,11.49
2022-11-03T07:14:35.928Z,11.85
2022-11-03T07:17:08.650Z,12.21
2022-11-03T07:19:44.538Z,12.83
2022-11-03T07:22:21.184Z,13.37
2022-11-03T07:24:54.401Z,13.92
2022-11-03T07:27:28.069Z,14.48
2022-11-03T07:30:01.921Z,14.92
2022-11-03T07:32:36.183Z,14.95
2022-11-03T07:35:27.395Z,14.82
2022-11-03T07:37:58.355Z,14.80
2022-11-03T07:40:30.482Z,14.83
2022-11-03T07:43:03.565Z,14.84
2022-11-03T07:45:41.071Z,14.76
2022-11-03T07:48:27.331Z,14.86
2022-11-03T07:51:03.270Z,14.78
2022-11-03T07:53:39.725Z,14.38
2022-11-03T07:56:21.067Z,14.56
2022-11-03T07:58:54.141Z,14.91
2022-11-03T08:01:32.744Z,15.32
2022-11-03T08:04:09.935Z,15.72
2022-11-03T08:06:42.716Z,15.91
2022-11-03T08:09:13.256Z,15.85
2022-11-03T08:11:43.572Z,16.07
2022-11-03T08:14:13.684Z,15.68
2022-11-03T08:16:44.301Z,15.94
2022-11-03T08:19:14.515Z,15.99
2022-11-03T08:21:47.269Z,15.95
2022-11-03T08:24:17.293Z,15.84
2022-11-03T08:26:47.348Z,15.58
2022-11-03T08:29:17.799Z,15.40
2022-11-03T08:31:51.235Z,15.74
2022-11-03T08:34:21.176Z,15.68
2022-11-03T08:36:53.883Z,15.77
2022-11-03T08:39:24.011Z,16.08
2022-11-03T08:41:54.174Z,16.48
2022-11-03T08:44:24.171Z,16.77
2022-11-03T08:46:54.228Z,16.42
2022-11-03T08:49:26.436Z,16.51
2022-11-03T08:51:59.186Z,16.14
2022-11-03T08:54:29.343Z,16.33
2022-11-03T08:56:59.428Z,15.79
2022-11-03T08:59:29.519Z,15.70
2022-11-03T09:02:00.357Z,15.57
2022-11-03T09:04:30.491Z,15.30
2022-11-03T09:07:03.294Z,15.49
2022-11-03T09:12:23.911Z,15.18
2022-11-03T09:14:53.883Z,15.09
2022-11-03T09:17:23.928Z,14.90
2022-11-03T09:19:54.045Z,15.21
2022-11-03T09:22:26.860Z,15.32
2022-11-03T09:24:56.992Z,15.32
2022-11-03T09:27:27.379Z,15.34
2022-11-03T09:30:12.236Z,15.28
2022-11-03T09:32:44.013Z,15.48
2022-11-03T09:35:14.714Z,15.60
2022-11-03T09:37:47.975Z,15.62
2022-11-03T09:40:21.703Z,15.64
2022-11-03T09:42:51.832Z,15.84
2022-11-03T09:45:22.013Z,15.82
2022-11-03T09:47:52.281Z,15.68
2022-11-03T09:50:23.960Z,15.81
2022-11-03T09:52:56.789Z,16.02
2022-11-03T09:55:29.400Z,15.49
2022-11-03T09:58:03.728Z,15.40
2022-11-03T10:00:33.963Z,15.20
2022-11-03T10:03:06.485Z,15.38
2022-11-03T10:05:37.288Z,15.30
2022-11-03T10:08:25.491Z,15.22
2022-11-03T10:10:56.039Z,14.94
2022-11-03T10:13:31.929Z,14.75
2022-11-03T10:16:03.318Z,14.70
2022-11-03T10:18:33.705Z,14.89
2022-11-03T10:21:07.949Z,14.96
2022-11-03T10:23:40.624Z,14.90
2022-11-03T10:26:18.840Z,14.67
2022-11-03T10:29:04.540Z,14.56
2022-11-03T10:31:37.144Z,14.33
2022-11-03T10:34:08.866Z,14.25
2022-11-03T10:36:39.181Z,14.17
2022-11-03T10:39:33.532Z,14.29
2022-11-03T10:42:03.676Z,14.50
2022-11-03T10:44:34.522Z,14.58
2022-11-03T10:47:07.086Z,14.48
2022-11-03T10:49:43.286Z,14.54
2022-11-03T10:52:22.678Z,14.70
2022-11-03T10:54:57.765Z,14.52
2022-11-03T10:57:29.492Z,14.80
2022-11-03T10:59:59.961Z,15.08
2022-11-03T11:02:36.756Z,14.98
2022-11-03T11:05:18.594Z,15.17
2022-11-03T11:07:51.039Z,15.20
2022-11-03T11:10:27.139Z,15.27
2022-11-03T11:13:27.566Z,15.15
2022-11-03T11:15:59.300Z,15.18
2022-11-03T11:19:04.537Z,14.95
2022-11-03T11:21:49.706Z,14.75
2022-11-03T11:25:02.653Z,14.78
2022-11-03T11:28:00.227Z,14.75
2022-11-03T11:31:00.568Z,14.82
2022-11-03T11:33:31.667Z,14.75
2022-11-03T11:36:25.317Z,14.83
2022-11-03T11:38:59.516Z,14.74
2022-11-03T11:41:59.837Z,14.78
2022-11-03T11:44:55.076Z,14.64
2022-11-03T11:47:31.819Z,14.61
2022-11-03T11:50:33.540Z,14.64
2022-11-03T11:53:16.025Z,14.58
2022-11-03T11:55:50.702Z,14.60
2022-11-03T11:58:26.190Z,14.59
2022-11-03T12:01:04.203Z,14.50
2022-11-03T12:03:41.787Z,14.50
2022-11-03T12:06:15.546Z,14.42
2022-11-03T12:08:46.947Z,14.37
2022-11-03T12:11:17.232Z,14.21
2022-11-03T12:13:55.613Z,14.21
2022-11-03T12:16:36.122Z,14.19
2022-11-03T12:19:40.228Z,14.20
2022-11-03T12:22:12.682Z,14.08
2022-11-03T12:24:54.306Z,14.23
2022-11-03T12:27:45.907Z,14.18
2022-11-03T12:30:19.381Z,14.23
2022-11-03T12:32:56.129Z,14.29
2022-11-03T12:35:26.437Z,14.26
2022-11-03T12:37:56.470Z,14.24
2022-11-03T12:40:27.393Z,14.17
2022-11-03T12:42:57.489Z,14.22
2022-11-03T12:45:27.486Z,14.29
2022-11-03T12:48:00.273Z,14.33
2022-11-03T12:50:30.427Z,14.40
2022-11-03T12:53:00.572Z,14.48
2022-11-03T12:55:30.855Z,14.45
2022-11-03T12:58:01.576Z,14.39
2022-11-03T13:00:32.129Z,14.28
2022-11-03T13:03:05.063Z,14.26
2022-11-03T13:05:35.707Z,14.21
2022-11-03T13:08:06.126Z,14.25
2022-11-03T13:10:36.301Z,14.09
2022-11-03T13:13:06.759Z,14.14
2022-11-03T13:15:37.772Z,14.27
2022-11-03T13:18:13.809Z,14.33
2022-11-03T13:20:45.319Z,14.26
2022-11-03T13:23:18.789Z,14.35
2022-11-03T13:25:52.226Z,14.37
2022-11-03T13:28:22.393Z,14.41
2022-11-03T13:30:52.534Z,14.38
2022-11-03T13:33:25.275Z,14.34
2022-11-03T13:35:55.467Z,14.30
2022-11-03T13:38:25.746Z,14.20
2022-11-03T13:40:56.988Z,14.25
2022-11-03T13:43:29.128Z,14.25
2022-11-03T13:46:02.584Z,14.21
2022-11-03T13:51:25.854Z,14.16
2022-11-03T13:59:36.618Z,13.97
2022-11-03T14:04:59.783Z,13.86
2022-11-03T14:07:29.864Z,13.81
2022-11-03T14:10:03.598Z,13.59
2022-11-03T14:12:31.771Z,13.75
2022-11-03T14:15:02.649Z,13.73
2022-11-03T14:17:33.086Z,13.73
2022-11-03T14:20:06.351Z,13.73
2022-11-03T14:22:37.563Z,13.70
2022-11-03T14:25:09.104Z,13.68
2022-11-03T14:27:39.280Z,13.69
2022-11-03T14:30:10.975Z,13.61
2022-11-03T14:32:42.057Z,13.59
2022-11-03T14:35:15.222Z,13.50
2022-11-03T14:37:45.483Z,13.58
2022-11-03T14:40:35.744Z,13.54
2022-11-03T14:43:03.574Z,13.54
2022-11-03T14:45:35.834Z,13.56
2022-11-03T14:48:09.480Z,13.56
2022-11-03T14:50:42.370Z,13.55
2022-11-03T14:53:12.367Z,13.50
2022-11-03T14:55:42.792Z,13.41
2022-11-03T14:58:12.914Z,13.41
2022-11-03T15:00:43.215Z,13.47
2022-11-03T15:03:13.364Z,13.47
2022-11-03T15:05:48.816Z,13.28
2022-11-03T15:08:20.667Z,13.39
2022-11-03T15:10:51.080Z,13.39
2022-11-03T15:13:21.183Z,13.41
2022-11-03T15:15:51.276Z,13.39
2022-11-03T15:18:21.943Z,13.44
2022-11-03T15:20:54.749Z,13.42
2022-11-03T15:26:15.265Z,13.42
2022-11-03T15:28:45.400Z,13.41
2022-11-03T15:31:15.888Z,13.38
2022-11-03T15:33:46.016Z,13.36
2022-11-03T15:36:18.783Z,13.34
2022-11-03T15:38:48.973Z,13.31
2022-11-03T15:41:19.638Z,13.21
2022-11-03T15:43:50.982Z,13.33
2022-11-03T15:46:22.024Z,13.34
2022-11-03T15:48:54.645Z,13.35
2022-11-03T15:51:27.839Z,13.34
2022-11-03T15:53:59.196Z,13.37
2022-11-03T15:56:29.914Z,13.38
2022-11-03T15:59:00.032Z,13.40
2022-11-03T16:01:30.556Z,13.36
2022-11-03T16:04:01.268Z,13.39
2022-11-03T16:07:01.714Z,13.35
2022-11-03T16:09:27.117Z,13.38
2022-11-03T16:11:57.516Z,13.42
2022-11-03T16:14:27.805Z,13.43
2022-11-03T16:16:58.072Z,13.42
2022-11-03T16:19:28.377Z,13.42
2022-11-03T16:22:01.240Z,13.41
2022-11-03T16:24:35.183Z,13.39
2022-11-03T16:27:06.551Z,13.39
2022-11-03T16:29:38.129Z,13.42
2022-11-03T16:32:08.447Z,13.38
2022-11-03T16:34:38.748Z,13.40
2022-11-03T16:37:11.749Z,13.39
2022-11-03T16:39:42.168Z,13.39
2022-11-03T16:42:12.933Z,13.34
2022-11-03T16:44:44.975Z,13.37
2022-11-03T16:47:17.592Z,13.39
2022-11-03T16:49:47.999Z,13.36
2022-11-03T16:52:20.908Z,13.38
2022-11-03T16:54:51.842Z,13.40
2022-11-03T16:57:22.165Z,13.38
2022-11-03T16:59:52.605Z,13.37
2022-11-03T17:02:23.029Z,13.37
2022-11-03T17:04:54.361Z,13.36
2022-11-03T17:07:27.630Z,13.33
2022-11-03T17:09:58.031Z,13.32
2022-11-03T17:12:29.469Z,13.32
2022-11-03T17:14:59.751Z,13.30
2022-11-03T17:17:30.366Z,13.24
2022-11-03T17:20:01.947Z,13.22
2022-11-03T17:22:35.311Z,13.23
2022-11-03T17:25:05.753Z,13.22
2022-11-03T17:27:41.592Z,13.22
2022-11-03T17:30:25.740Z,13.22
2022-11-03T17:33:01.087Z,13.22
2022-11-03T17:35:39.543Z,13.25
2022-11-03T17:38:15.776Z,13.21
2022-11-03T17:40:48.165Z,13.15
2022-11-03T17:43:24.506Z,13.16
2022-11-03T17:45:55.391Z,13.16
2022-11-03T17:48:26.562Z,13.14
2022-11-03T17:51:00.246Z,13.02
2022-11-03T17:53:35.626Z,12.95
2022-11-03T17:58:56.524Z,13.05
2022-11-03T18:01:29.995Z,13.05
2022-11-03T18:06:46.156Z,13.12
2022-11-03T18:09:19.953Z,13.10
2022-11-03T18:12:03.110Z,13.11
2022-11-03T18:14:33.627Z,13.12
2022-11-03T18:17:04.702Z,13.14
2022-11-03T18:19:35.096Z,13.17
2022-11-03T18:22:05.951Z,13.15
2022-11-03T18:24:39.387Z,13.16
2022-11-03T18:27:13.726Z,13.17
2022-11-03T18:29:44.278Z,13.16
2022-11-03T18:32:19.321Z,13.18
2022-11-03T18:34:50.094Z,13.17
2022-11-03T18:37:20.524Z,13.18
2022-11-03T18:39:53.510Z,13.19
2022-11-03T18:42:23.994Z,13.22
2022-11-03T18:44:59.919Z,13.20
2022-11-03T18:47:33.019Z,13.23
2022-11-03T18:50:03.319Z,13.21
2022-11-03T18:52:33.864Z,13.20
2022-11-03T18:55:13.204Z,13.20
2022-11-03T18:57:44.277Z,13.08
2022-11-03T19:00:21.935Z,13.06
2022-11-03T19:02:53.360Z,13.05
2022-11-03T19:05:23.900Z,13.03
2022-11-03T19:07:54.980Z,13.04
2022-11-03T19:10:28.263Z,13.08
2022-11-03T19:13:00.036Z,13.01
2022-11-03T19:15:30.805Z,13.10
2022-11-03T19:18:05.601Z,13.05
2022-11-03T19:20:36.227Z,13.05
2022-11-03T19:23:07.116Z,13.06
2022-11-03T19:25:43.514Z,13.04
2022-11-03T19:28:16.260Z,13.07
2022-11-03T19:30:47.084Z,13.06
2022-11-03T19:33:23.006Z,13.04
2022-11-03T19:35:54.149Z,13.07
2022-11-03T19:38:24.884Z,13.02
2022-11-03T19:41:18.920Z,13.07
2022-11-03T19:43:49.640Z,13.08
2022-11-03T19:46:22.663Z,13.07
2022-11-03T19:48:53.385Z,13.04
2022-11-03T19:51:26.632Z,12.99
2022-11-03T19:53:57.445Z,13.01
2022-11-03T19:56:30.728Z,13.00
2022-11-03T19:59:05.496Z,13.03
2022-11-03T20:01:36.391Z,13.09
2022-11-03T20:04:07.084Z,13.06
2022-11-03T20:06:41.099Z,13.07
2022-11-03T20:09:18.415Z,13.06
2022-11-03T20:11:51.458Z,13.08
2022-11-03T20:14:27.114Z,13.06
2022-11-03T20:16:59.364Z,13.01
2022-11-03T20:19:29.832Z,13.03
2022-11-03T20:22:01.459Z,13.00
2022-11-03T20:24:32.193Z,12.99
2022-11-03T20:27:07.507Z,13.01
2022-11-03T20:29:38.237Z,12.93
2022-11-03T20:32:08.702Z,12.87
2022-11-03T20:34:39.961Z,12.88
2022-11-03T20:37:19.928Z,12.89
2022-11-03T20:39:51.218Z,12.82
2022-11-03T20:42:26.223Z,12.77
2022-11-03T20:44:56.651Z,12.70
2022-11-03T20:47:28.563Z,12.62
2022-11-03T20:49:59.352Z,12.55
2022-11-03T20:52:30.217Z,12.45
2022-11-03T20:55:00.707Z,12.36
2022-11-03T20:57:34.012Z,12.25
2022-11-03T21:00:04.644Z,12.15
2022-11-03T21:02:35.421Z,12.05
2022-11-03T21:05:05.886Z,11.97
2022-11-03T21:07:41.434Z,11.93
2022-11-03T21:10:17.920Z,11.85
2022-11-03T21:12:54.947Z,11.81
2022-11-03T21:15:52.345Z,11.78
2022-11-03T21:18:43.089Z,11.77
2022-11-03T21:21:19.668Z,11.67
2022-11-03T21:23:51.001Z,11.71
2022-11-03T21:26:21.160Z,11.70
2022-11-03T21:28:54.124Z,11.71
2022-11-03T21:31:24.239Z,11.66
2022-11-03T21:33:59.768Z,11.66
2022-11-03T21:36:29.895Z,11.63
2022-11-03T21:39:00.010Z,11.70
2022-11-03T21:41:42.551Z,11.70
2022-11-03T21:44:18.027Z,11.74
2022-11-03T21:46:49.220Z,11.79
2022-11-03T21:49:31.828Z,11.75
2022-11-03T21:52:01.875Z,11.79
2022-11-03T21:54:31.957Z,11.81
2022-11-03T21:57:02.035Z,11.70
2022-11-03T21:59:34.712Z,11.80
2022-11-03T22:02:06.304Z,11.85
2022-11-03T22:04:36.706Z,11.76
2022-11-03T22:07:06.770Z,11.78
2022-11-03T22:09:37.206Z,11.76
2022-11-03T22:12:08.133Z,11.78
2022-11-03T22:14:53.303Z,11.89
2022-11-03T22:17:23.403Z,11.69
2022-11-03T22:20:05.888Z,11.86
2022-11-03T22:22:48.428Z,11.64
2022-11-03T22:25:31.242Z,11.74
2022-11-03T22:28:01.704Z,11.78
2022-11-03T22:30:46.746Z,11.81
2022-11-03T22:33:16.877Z,11.82
2022-11-03T22:35:59.386Z,11.86
2022-11-03T22:38:41.869Z,11.75
2022-11-03T22:41:24.632Z,11.78
2022-11-03T22:44:07.320Z,11.90
2022-11-03T22:46:40.073Z,11.97
2022-11-03T22:49:10.456Z,12.03
2022-11-03T22:51:40.839Z,12.07
2022-11-03T22:54:13.608Z,11.94
2022-11-03T22:56:43.897Z,12.04
2022-11-03T22:59:14.048Z,12.06
2022-11-03T23:01:47.174Z,12.10
2022-11-03T23:04:17.323Z,12.16
2022-11-03T23:06:47.423Z,12.21
2022-11-03T23:09:20.718Z,12.15
2022-11-03T23:11:50.880Z,12.12
2022-11-03T23:14:21.586Z,12.17
2022-11-03T23:16:54.302Z,12.25
2022-11-03T23:19:36.717Z,12.30
2022-11-03T23:22:06.911Z,12.26
2022-11-03T23:24:49.343Z,12.24
2022-11-03T23:27:21.143Z,12.20
2022-11-03T23:29:51.240Z,12.27
2022-11-03T23:32:24.200Z,12.27
2022-11-03T23:34:54.304Z,12.34
2022-11-03T23:37:24.403Z,12.36
2022-11-03T23:39:54.658Z,12.34
2022-11-03T23:42:24.848Z,12.32
2022-11-03T23:45:07.265Z,12.26
2022-11-03T23:47:52.338Z,12.29
2022-11-03T23:50:22.516Z,12.16
2022-11-03T23:52:52.852Z,12.27
2022-11-03T23:55:22.881Z,12.33
2022-11-03T23:58:08.486Z,12.29
